Abington, Massachusetts
Current Conditions -  °F | °C
As of 5:53 PM on Friday 19 Dec 2014 (Local Time) from KOWD Reporting Station
Overcast Overcast  
Wind Chill: -2°   Ceiling: 3400
Heat Index:   Visibility: 10mi
Dew Point: -6°   Wind: 6mph
Humidity: 61%   Direction: 320°NW
Pressure: 30.04"   Gusts: NA
Location:  42.12°N, 70.96°W
Report Text: KOWD 192253Z 32005KT 10SM OVC034 01/M06 A3004 RMK AO2 SLP173 T00061061
Loading
Personal Weather Stations






























Interactive Weather Map New forecast layout! Learn more

10-Day Weather Forecast

Advertisements
Track Severe Weather on mobile